Stoutland, MO (65567)

7:03 AM CST on December 22, 2014 (GMT -0600)
Rural Lebanon | Change Station
CLOSE
Current Station
Personal Weather Station
Location: Lebanon, MO
Elevation: 1160 ft
Nearby Weather Stations

Elev 1160 ft 37.77 °N, 92.65 °W | Updated 11 seconds ago

Overcast
Overcast
41.6 °F
Feels Like 42 °F
N
1.2
Wind Variable Wind from SSW
Gusts 1.2 mph

Today
High -- | Low -- °F
--% Chance of Precip.
Yesterday
High -- | Low -- °F
Precip. -- in
7:22 AM 4:54 PM
New Moon, 0% visible
Pressure 29.68 in
Visibility 10.0 miles
Clouds Overcast 1000 ft
Windchill 42 °F
Dew Point 39 °F
Humidity 91%
Rainfall 0.00 in
Snow Depth Not available.
UV 0.0 out of 12
Pollen 5.20 out of 12
Air Quality Not available.
Flu Activity Not available.
METAR KH21 221255Z AUTO 14008KT 10SM OVC010 06/04 A2968 RMK AO2

More Conditions Fewer Conditions

Pressure 29.68 in
Visibility 10.0 miles
Clouds Overcast 1000 ft
Windchill 42 °F
Dew Point 39 °F
Humidity 91%
Rainfall 0.00 in
Snow Depth Not available.
UV 0.0 out of 12
Pollen 5.20 out of 12
Air Quality Not available.
Flu Activity Not available.
METAR KH21 221255Z AUTO 14008KT 10SM OVC010 06/04 A2968 RMK AO2

More Conditions Fewer Conditions

10-Day Weather Forecast

Almanac

Astronomy

Dec. 22, 2014 Rise Set
Actual Time
Civil Twilight
Nautical Twilight
Astronomical Twilight
Moon
Length of Visible Light
Length of Day
Tomorrow will be .
, % of the Moon is Illuminated

Today's Extremes

State Highs State Lows

Community

WunderPhotos

Upload Photos

1,779,597 photos uploaded!

WunderBlogs® & News

Nearby

Air Quality

  Air Quality AQ Index Pollutant
Not available.

Snow Depth

Station Depth Elevation

Earthquake Activity

City Distance Mag. Time & Date
Minimum magnitude displayed is 2.5.

Coastal Water Temperatures

Place Temperature

Nearby Weather Stations